Latest Coastal Weather Observations for Ballina

IDN60701

Issued at 5:12 am EST Monday 26 September 2016 (issued every 10 minutes, with the page automatically refreshed every 10 minutes)

About coastal observations | Map of coastal stations | Coastal observations for NSW | Marine services | Other Formats
Station Details ID: 058198 Name: BALLINA AIRPORT AWS Lat: -28.84 Lon: 153.56 Height: 1.3 m
Data from the previous 72 hours. | See also: Recent months at Ballina
Date/Time
EST
Temp
°C
Wind Pressure Rain since
9am
mm
Weather Cloud Vis
km
Sea
Height
m
Swell
Dir  Spd
kts
Gust
kts
hPa Trend Height
m
Period
s
Dir
26/05:00am 10.9 CALM 0 0 1011.4 - 0.0 - - 10 - - - -
26/04:30am 12.2 W 5 6 1011.3 - 0.0 - - 10 - - - -
26/04:00am 11.7 W 5 6 1011.0 - 0.0 - - 10 - - - -
26/03:30am 13.5 W 5 6 1010.8 - 0.0 - - 10 - - - -
26/03:00am 13.4 W 6 7 1010.5 - 0.0 - - 10 - - - -
26/02:30am 13.2 W 4 5 1010.4 - 0.0 - - 10 - - - -
26/02:00am 12.7 WNW 1 4 1010.4 - 0.0 - - 10 - - - -
26/01:30am 14.1 WNW 4 6 1010.5 - 0.0 - - 10 - - - -
26/01:00am 14.5 W 5 5 1010.6 - 0.0 - - 10 - - - -
26/12:30am 15.0 W 5 6 1010.7 - 0.0 - - 10 - - - -
26/12:00am 15.3 W 7 7 1011.0 - 0.0 - - 10 - - - -
 
Date/Time
EST
Temp
°C
Wind Pressure Rain since
9am
mm
Weather Cloud Vis
km
Sea
Height
m
Swell
Dir  Spd
kts
Gust
kts
hPa Trend Height
m
Period
s
Dir
25/11:30pm 15.6 WSW 6 7 1010.6 - 0.0 - - 10 - - - -
25/11:00pm 16.2 WSW 6 8 1010.7 - 0.0 - - 10 - - - -
25/10:30pm 18.9 SW 9 12 1010.3 - 0.0 - - 10 - - - -
25/10:00pm 18.2 SW 7 10 1010.3 - 0.0 - - 10 - - - -
25/09:30pm 19.0 WSW 8 10 1010.0 - 0.0 - - 10 - - - -
25/09:00pm 19.5 WSW 8 11 1009.9 - 0.0 - - 10 - - - -
25/08:30pm 18.0 W 9 11 1009.4 - 0.0 - - 10 - - - -
25/08:00pm 19.7 SW 8 12 1009.1 - 0.0 - - 10 - - - -
25/07:30pm 17.4 WSW 5 7 1008.7 - 0.0 - - 10 - - - -
25/07:00pm 18.1 SW 5 6 1008.2 - 0.0 - Partly cloudy 10 - - - -
25/06:30pm 20.2 SSW 3 5 1007.5 - 0.0 - Partly cloudy 10 - - - -
25/06:00pm 19.8 S 6 7 1007.0 - 0.0 - Partly cloudy 10 - - - -
25/05:30pm 21.6 SSE 7 10 1006.4 - 0.0 - Cloudy 10 - - - -
25/05:00pm 22.3 SE 7 11 1005.7 - 0.0 - Cloudy 10 - - - -
25/04:30pm 23.8 SSW 9 16 1005.1 - 0.0 - Partly cloudy 10 - - - -
25/04:00pm 26.4 W 13 18 1004.4 - 0.0 - - 10 - - - -
25/03:30pm 26.6 W 10 16 1004.3 - 0.0 - - 10 - - - -
25/03:00pm 25.7 WNW 13 22 1004.5 - 0.0 - Mostly cloudy 10 - - - -
25/02:48pm 24.3 WSW 10 22 1004.7 - 0.0 - Partly cloudy 10 - - - -
25/02:30pm 24.1 SE 5 8 1004.6 - 0.0 - Partly cloudy 10 - - - -
25/02:00pm 26.9 NW 17 23 1004.3 - 0.0 - Partly cloudy 10 - - - -
25/01:30pm 27.5 WNW 15 22 1004.4 - 0.0 - Partly cloudy 10 - - - -
25/01:00pm 26.6 WNW 11 17 1005.1 - 0.0 - Partly cloudy 10 - - - -
25/12:30pm 27.3 W 15 27 1005.2 - 0.0 - Partly cloudy 10 - - - -
25/12:25pm 26.6 W 15 27 1005.2 - 0.0 - Partly cloudy 10 - - - -
25/12:00pm 26.8 WNW 11 20 1005.8 - 0.0 - Mostly clear 10 - - - -
25/11:30am 25.2 WNW 9 14 1006.2 - 0.0 - - 10 - - - -
25/11:00am 25.2 WNW 10 16 1006.7 - 0.0 - - 10 - - - -
25/10:30am 24.4 NW 12 16 1007.2 - 0.0 - - 10 - - - -
25/10:00am 23.7 NW 10 15 1007.7 - 0.0 - - 10 - - - -
25/09:30am 23.1 NW 11 17 1008.1 - 0.0 - - 10 - - - -
25/09:00am 22.0 NW 8 15 1008.5 - 0.0 - Mostly clear 10 - - - -
25/08:30am 18.8 NW 5 7 1008.8 - 0.0 - - 10 - - - -
25/08:00am 17.8 NNW 5 8 1008.8 - 0.0 - Partly cloudy 10 - - - -
25/07:30am 16.6 CALM 0 1 1009.2 - 0.0 - Partly cloudy 10 - - - -
25/07:00am 16.0 N 4 6 1009.0 - 0.0 - Cloudy 10 - - - -
25/06:30am 16.4 NW 5 8 1009.0 - 0.0 - Cloudy 10 - - - -
25/06:00am 14.4 NNW 3 5 1008.9 - 0.0 - Cloudy 10 - - - -
25/05:30am 13.5 CALM 0 3 1008.6 - 0.0 - Cloudy 10 - - - -
25/05:00am 12.7 CALM 0 0 1008.6 - 0.0 - Partly cloudy 10 - - - -
25/04:30am 12.9 N 3 3 1007.9 - 0.0 - - 10 - - - -
25/04:00am 11.7 WNW 1 4 1007.8 - 0.0 - - 10 - - - -
25/03:30am 12.4 CALM 0 0 1008.1 - 0.0 - - 10 - - - -
25/03:00am 13.0 CALM 0 0 1008.0 - 0.0 - - 10 - - - -
25/02:30am 13.8 NW 3 6 1008.3 - 0.0 - - 10 - - - -
25/02:00am 16.3 NNW 4 6 1008.4 - 0.0 - - 10 - - - -
25/01:30am 16.6 N 5 7 1008.8 - 0.0 - - 10 - - - -
25/01:00am 17.1 N 7 9 1009.1 - 0.0 - - 10 - - - -
25/12:30am 17.4 N 7 9 1009.2 - 0.0 - - 10 - - - -
25/12:00am 17.2 N 6 7 1009.2 - 0.0 - - 10 - - - -
 
Date/Time
EST
Temp
°C
Wind Pressure Rain since
9am
mm
Weather Cloud Vis
km
Sea
Height
m
Swell
Dir  Spd
kts
Gust
kts
hPa Trend Height
m
Period
s
Dir
24/11:30pm 15.6 N 4 5 1009.5 - 0.0 - - 10 - - - -
24/11:00pm 15.9 N 4 5 1009.8 - 0.0 - - 10 - - - -
24/10:30pm 16.3 N 5 6 1010.1 - 0.0 - - 10 - - - -
24/10:00pm 15.9 N 5 5 1010.3 - 0.0 - - 10 - - - -
24/09:30pm 16.0 N 3 4 1010.3 - 0.0 - - 10 - - - -
24/09:00pm 16.4 N 5 6 1010.2 - 0.0 - - 10 - - - -
24/08:30pm 16.4 N 4 5 1010.3 - 0.0 - - 10 - - - -
24/08:00pm 16.6 N 3 3 1010.6 - 0.0 - - 10 - - - -
24/07:30pm 17.0 NNE 3 3 1010.6 - 0.0 - - 10 - - - -
24/07:00pm 17.7 NNE 4 5 1010.2 - 0.0 - - 10 - - - -
24/06:30pm 18.8 N 5 7 1010.1 - 0.0 - Partly cloudy 10 - - - -
24/06:00pm 19.3 NE 6 8 1009.9 - 0.0 - Partly cloudy 10 - - - -
24/05:30pm 20.2 NE 9 12 1009.5 - 0.0 - - 10 - - - -
24/05:00pm 21.0 NE 11 15 1009.4 - 0.0 - Partly cloudy 10 - - - -
24/04:30pm 21.8 ENE 11 15 1009.3 - 0.0 - Partly cloudy 10 - - - -
24/04:00pm 22.0 ENE 12 17 1009.1 - 0.0 - Partly cloudy 10 - - - -
24/03:30pm 22.6 ENE 12 17 1009.1 - 0.0 - Partly cloudy 10 - - - -
24/03:00pm 21.6 ENE 12 17 1009.2 - 0.0 - Mostly clear 10 - - - -
24/02:30pm 22.8 ENE 12 16 1009.2 - 0.0 - Partly cloudy 10 - - - -
24/02:00pm 23.3 ENE 11 19 1009.4 - 0.0 - Partly cloudy 10 - - - -
24/01:30pm 23.2 ENE 11 16 1009.8 - 0.0 - Partly cloudy 10 - - - -
24/01:00pm 22.1 ENE 11 14 1010.2 - 0.0 - Partly cloudy 10 - - - -
24/12:30pm 23.5 ENE 11 15 1010.4 - 0.0 - - 10 - - - -
24/12:00pm 23.4 ENE 11 15 1010.9 - 0.0 - - 10 - - - -
24/11:30am 23.3 ENE 11 14 1011.4 - 0.0 - Partly cloudy 10 - - - -
24/11:00am 23.4 E 10 13 1011.7 - 0.0 - Partly cloudy 10 - - - -
24/10:30am 22.1 E 5 9 1012.2 - 0.0 - Cloudy 10 - - - -
24/10:00am 22.2 SE 3 5 1012.6 - 0.0 - Partly cloudy 10 - - - -
24/09:30am 22.6 WNW 3 6 1012.8 - 0.0 - - 10 - - - -
24/09:00am 21.8 NW 2 6 1013.2 - 0.0 - - 10 - - - -
24/08:30am 20.6 WSW 2 6 1013.3 - 0.0 - - 10 - - - -
24/08:00am 19.5 W 5 6 1013.2 - 0.0 - - 10 - - - -
24/07:30am 17.9 WNW 3 5 1013.2 - 0.0 - - 10 - - - -
24/07:00am 15.2 CALM 0 0 1013.0 - 0.0 - - 10 - - - -
24/06:30am 12.6 CALM 0 0 1012.5 - 0.0 - - 10 - - - -
24/06:00am 10.3 CALM 0 0 1012.1 - 0.0 - - 10 - - - -
24/05:30am 10.1 CALM 0 0 1011.9 - 0.0 - - 10 - - - -
24/05:00am 9.5 CALM 0 0 1011.6 - 0.0 - - 10 - - - -
24/04:30am 10.2 CALM 0 0 1011.5 - 0.0 - - 10 - - - -
24/04:00am 10.3 CALM 0 0 1011.1 - 0.0 - - 10 - - - -
24/03:30am 10.3 CALM 0 0 1011.1 - 0.0 - - 10 - - - -
24/03:00am 11.8 NNW 1 3 1011.0 - 0.0 - - 10 - - - -
24/02:30am 11.6 CALM 0 0 1011.2 - 0.0 - - 10 - - - -
24/02:00am 11.6 N 1 3 1011.3 - 0.0 - Partly cloudy 10 - - - -
24/01:30am 11.9 CALM 0 0 1011.4 - 0.0 - Partly cloudy 10 - - - -
24/01:00am 12.5 CALM 0 0 1011.3 - 0.0 - Partly cloudy 10 - - - -
24/12:30am 13.0 NNW 3 4 1011.3 - 0.0 - - 10 - - - -
24/12:00am 13.7 NNW 4 4 1011.5 - 0.0 - - 10 - - - -
 
Date/Time
EST
Temp
°C
Wind Pressure Rain since
9am
mm
Weather Cloud Vis
km
Sea
Height
m
Swell
Dir  Spd
kts
Gust
kts
hPa Trend Height
m
Period
s
Dir
23/11:30pm 12.7 CALM 0 0 1011.6 - 0.0 - - 10 - - - -
23/11:00pm 12.9 CALM 0 0 1011.6 - 0.0 - - 10 - - - -
23/10:30pm 13.0 CALM 0 0 1011.7 - 0.0 - - 10 - - - -
23/10:00pm 13.0 CALM 0 0 1011.9 - 0.0 - - 10 - - - -
23/09:30pm 13.7 CALM 0 0 1011.9 - 0.0 - - 10 - - - -
23/09:00pm 14.2 CALM 0 0 1011.8 - 0.0 - Mostly clear 10 - - - -
23/08:30pm 14.0 CALM 0 0 1011.7 - 0.0 - - 10 - - - -
23/08:00pm 15.6 CALM 0 0 1011.5 - 0.0 - - 10 - - - -
23/07:30pm 15.8 CALM 0 0 1011.1 - 0.0 - - 10 - - - -
23/07:00pm 15.4 CALM 0 0 1010.6 - 0.0 - - 10 - - - -
23/06:30pm 17.2 NE 3 3 1010.2 - 0.0 - - 10 - - - -
23/06:00pm 17.6 ENE 3 4 1009.9 - 0.0 - - 10 - - - -
23/05:30pm 18.7 NE 5 7 1009.4 - 0.0 - - 10 - - - -
23/05:00pm 20.5 ENE 8 11 1009.0 - 0.0 - - 10 - - - -
23/04:30pm 21.0 ENE 10 12 1008.5 - 0.0 - - 10 - - - -
23/04:00pm 21.5 ESE 9 12 1008.4 - 0.0 - - 10 - - - -
23/03:30pm 22.1 ESE 9 13 1008.4 - 0.0 - - 10 - - - -
23/03:00pm 22.1 ESE 12 15 1008.3 - 0.0 - - 10 - - - -
23/02:30pm 23.0 ESE 8 12 1008.3 - 0.0 - - 10 - - - -
23/02:00pm 23.0 SE 7 10 1008.7 - 0.0 - - 10 - - - -
23/01:30pm 22.9 SE 9 12 1009.0 - 0.0 - - 10 - - - -
23/01:00pm 23.2 SE 11 13 1009.2 - 0.0 - - 10 - - - -
23/12:30pm 22.5 SSE 12 16 1009.5 - 0.0 - - 10 - - - -
23/12:00pm 22.6 SW 7 10 1009.8 - 0.0 - - 10 - - - -
23/11:30am 22.1 WSW 9 16 1010.2 - 0.0 - - 10 - - - -
23/11:00am 22.0 WSW 9 14 1010.7 - 0.0 - - 10 - - - -
23/10:30am 21.8 WSW 9 14 1010.9 - 0.0 - - 10 - - - -
23/10:00am 21.2 SW 11 15 1011.1 - 0.0 - - 10 - - - -
23/09:30am 20.7 WSW 11 14 1011.3 - 0.0 - - 10 - - - -
23/09:00am 20.0 WSW 10 13 1011.2 - 0.0 - - 10 - - - -
23/08:30am 19.4 W 11 14 1011.3 - 0.0 - - 10 - - - -
23/08:00am 18.2 W 12 15 1011.3 - 0.0 - - 10 - - - -
23/07:30am 17.3 W 12 16 1011.2 - 0.0 - - 10 - - - -
23/07:00am 16.7 W 9 11 1010.8 - 0.0 - - 10 - - - -
23/06:30am 15.1 W 11 16 1010.7 - 0.0 - - 10 - - - -
23/06:00am 13.6 WSW 9 11 1010.4 - 0.0 - - 10 - - - -
23/05:30am 12.7 WSW 5 9 1010.2 - 0.0 - - 10 - - - -

Other Formats:

Comma delimited format used in spreadsheet applications
http://www.bom.gov.au/fwo/IDN60701/IDN60701.94596.axf

JavaScript Object Notation format (JSON) in row-major order
http://www.bom.gov.au/fwo/IDN60701/IDN60701.94596.json